Cedar Ridge, Arizona
Current Conditions -  °F | °C
As of 11:54 AM on Thursday 30 Oct 2014 (Local Time) from KGCN Reporting Station
Clear Clear  
Wind Chill: 67°   Ceiling: Unl
Heat Index: 67°   Visibility: 10mi
Dew Point: 17°   Wind: 8mph
Humidity: 15%   Direction: 80°E
Pressure: 30.35"   Gusts: NA
Location:  35.8756°N, 111.412°W
Report Text: KGCN 301754Z 08007KT 050V110 10SM CLR 19/M08 A3035 RMK AO2 SLP228 T01941083 10194 21033 58002
Loading
Personal Weather Stations






























Interactive Weather Map
Tropical Storm Tracking
New forecast layout! Learn more

10-Day Weather Forecast

Advertisements
Track Severe Weather on mobile